Flight Track Log - Related Links

Times and Time Zones

All times are in EDT time to prevent confusion due to time zone crossing. See the FLG3326 flight status page for this flight to view local times or setup timezone preferences in your user account.

Time Position Orientation Groundspeed Altitude Reporting Facility
EDT Latitude Longitude Course Direction KTS MPH feet Rate Location/Type
Fri 07:25:44 PM 32.9167 -97.0500 330° Northwest 167 192 1,200  Level Dallas / Fort Worth TRACON
Fri 07:26:14 PM 32.9333 -97.0500 360° North 171 197 2,200 1,860 Climbing Dallas / Fort Worth TRACON
Fri 07:27:53 PM 33.0333 -97.0542 358° North 237 273 5,200 2,151 Climbing Fort Worth Center
Fri 07:28:00 PM 32.8230 -96.8054 10° North  Level FlightAware Approximate
Fri 07:28:53 PM 33.0958 -97.0589 356° North 237 273 7,900  Level Fort Worth Center
Fri 07:29:00 PM 32.9328 -96.8000 North  Level FlightAware Approximate
Fri 07:29:53 PM 33.1753 -97.0708 353° North 243 280 10,300  Level Fort Worth Center
Fri 07:30:00 PM 33.0366 -96.8320 333° Northwest  Level FlightAware Approximate
Fri 07:30:53 PM 33.2547 -97.0806 354° North 288 331 11,200  Level Fort Worth Center
Fri 07:31:00 PM 33.1329 -96.8958 330° Northwest  Level FlightAware Approximate
Fri 07:31:53 PM 33.3486 -97.0950 353° North 327 376 13,300  Level Fort Worth Center
Fri 07:32:53 PM 33.4528 -97.0822 North 338 389 15,600 1,850 Climbing Fort Worth Center
Fri 07:33:53 PM 33.5425 -97.0594 12° North 353 406 17,000 1,600 Climbing Fort Worth Center
Fri 07:34:53 PM 33.6531 -97.0267 14° North 364 419 18,800 1,650 Climbing Fort Worth Center
Fri 07:35:53 PM 33.7469 -97.0039 11° North 376 433 20,300 1,500 Climbing Fort Worth Center
Fri 07:36:53 PM 33.8575 -96.9733 13° North 383 441 21,800 1,450 Climbing Fort Worth Center
Fri 07:37:53 PM 33.9681 -96.9403 14° North 395 455 23,200 1,500 Climbing Fort Worth Center
Fri 07:38:53 PM 34.0806 -96.9094 13° North 401 461 24,800 1,650 Climbing Fort Worth Center
Fri 07:39:53 PM 34.1972 -96.8836 10° North 396 456 26,500 1,500 Climbing Fort Worth Center
Fri 07:40:53 PM 34.3078 -96.8503 14° North 396 456 27,800 1,000 Climbing Fort Worth Center
Fri 07:41:53 PM 34.4244 -96.8194 12° North 403 464 28,500 1,200 Climbing Fort Worth Center
Fri 07:42:53 PM 34.5369 -96.7858 14° North 416 479 30,200 1,400 Climbing Fort Worth Center
Fri 07:43:53 PM 34.6514 -96.7547 13° North 416 479 31,300 1,050 Climbing Fort Worth Center
Fri 07:44:53 PM 34.7661 -96.7208 14° North 416 479 32,300 1,000 Climbing Fort Worth Center
Fri 07:45:53 PM 34.8806 -96.6897 13° North 416 479 33,300 950 Climbing Fort Worth Center
Fri 07:46:53 PM 34.9953 -96.6583 13° North 411 473 34,200 850 Climbing Fort Worth Center
Fri 07:47:53 PM 35.1097 -96.6242 14° North 411 473 35,000 400 Climbing Fort Worth Center
Fri 07:48:53 PM 35.2242 -96.5928 13° North 411 473 35,000  Level Fort Worth Center
Fri 07:49:53 PM 35.3408 -96.5586 13° North 416 479 35,000  Level Fort Worth Center
Fri 07:51:57 PM 35.5681 -96.4947 13° North 430 495 35,000  Level Kansas City Center
Fri 07:52:59 PM 35.6828 -96.4628 13° North 427 491 35,000  Level Kansas City Center
Fri 07:54:01 PM 35.8194 -96.4242 13° North 423 487 35,000  Level Kansas City Center
Fri 07:55:03 PM 35.9244 -96.3967 12° North 424 488 35,000  Level Kansas City Center
Fri 07:56:05 PM 36.0403 -96.3631 13° North 426 490 35,000  Level Kansas City Center
Fri 07:57:07 PM 36.1811 -96.3242 13° North 428 493 35,000  Level Kansas City Center
Fri 07:58:09 PM 36.2983 -96.2889 14° North 430 495 35,000  Level Kansas City Center
Fri 07:59:11 PM 36.4178 -96.2558 13° North 434 499 35,000  Level Kansas City Center
Fri 08:00:14 PM 36.5344 -96.2211 13° North 429 494 35,000  Level Kansas City Center
Fri 08:01:29 PM 36.6756 -96.1803 13° North 430 495 35,000  Level Kansas City Center
Fri 08:02:31 PM 36.7931 -96.1450 14° North 430 495 35,000  Level Kansas City Center
Fri 08:03:33 PM 36.9089 -96.1106 13° North 427 491 35,000  Level Kansas City Center
Fri 08:04:34 PM 37.0500 -96.0692 13° North 429 494 35,000  Level Kansas City Center
Fri 08:05:36 PM 37.1681 -96.0347 13° North 431 496 35,000  Level Kansas City Center
Fri 08:06:38 PM 37.2842 -95.9989 14° North 430 495 35,000  Level Kansas City Center
Fri 08:07:40 PM 37.4008 -95.9658 13° North 428 493 35,000  Level Kansas City Center
Fri 08:08:42 PM 37.5169 -95.9314 13° North 427 491 35,000  Level Kansas City Center
Fri 08:09:44 PM 37.6342 -95.8956 14° North 429 494 35,000  Level Kansas City Center
Fri 08:10:46 PM 37.7511 -95.8642 12° North 428 493 35,000  Level Kansas City Center
Fri 08:11:48 PM 37.8689 -95.8281 14° North 432 497 35,000  Level Kansas City Center
Fri 08:12:50 PM 38.0039 -95.7869 13° North 436 502 35,000  Level Kansas City Center
Fri 08:13:52 PM 38.1164 -95.7525 14° North 434 499 35,000  Level Kansas City Center
Fri 08:14:53 PM 38.2469 -95.7125 14° North 432 497 35,000  Level Kansas City Center
Fri 08:15:55 PM 38.3583 -95.6797 13° North 429 494 35,000  Level Kansas City Center
Fri 08:16:57 PM 38.4881 -95.6403 13° North 428 493 35,000  Level Kansas City Center
Fri 08:17:59 PM 38.5989 -95.6056 14° North 428 493 35,000  Level Kansas City Center
Fri 08:19:01 PM 38.7272 -95.5661 13° North 424 488 35,000  Level Kansas City Center
Fri 08:20:02 PM 38.8378 -95.5314 14° North 425 489 35,000  Level Kansas City Center
Fri 08:21:04 PM 38.9467 -95.4972 14° North 420 483 35,000  Level Kansas City Center
Fri 08:22:06 PM 39.0778 -95.4567 14° North 419 482 35,000  Level Kansas City Center
Fri 08:23:08 PM 39.1997 -95.4183 14° North 418 481 35,000  Level Kansas City Center
Fri 08:24:10 PM 39.3119 -95.3819 14° North 416 479 35,000  Level Kansas City Center
Fri 08:25:11 PM 39.4250 -95.3478 13° North 417 480 35,000  Level Kansas City Center
Fri 08:26:13 PM 39.5458 -95.3092 14° North 415 478 35,000  Level Kansas City Center
Fri 08:27:15 PM 39.6567 -95.2739 14° North 416 479 35,000  Level Kansas City Center
Fri 08:28:17 PM 39.7633 -95.2397 14° North 412 474 35,000  Level Kansas City Center
Fri 08:29:18 PM 39.8892 -95.2011 13° North 415 478 35,000  Level Kansas City Center
Fri 08:30:20 PM 39.9964 -95.1658 14° North 414 476 35,000  Level Kansas City Center
Fri 08:31:22 PM 40.1033 -95.1314 14° North 414 476 35,000  Level Kansas City Center
Fri 08:31:39 PM 40.1386 -95.1197 14° North 415 478 35,000  Level Minneapolis Center
Fri 08:32:41 PM 40.2497 -95.0844 14° North 412 474 35,000  Level Minneapolis Center
Fri 08:33:43 PM 40.3619 -95.0478 14° North 414 476 35,000 -97 Level Minneapolis Center
Fri 08:34:45 PM 40.4961 -95.0044 14° North 415 478 34,800 -677 Descending Minneapolis Center
Fri 08:35:47 PM 40.6103 -94.9669 14° North 420 483 33,600 -1,113 Descending Minneapolis Center
Fri 08:36:49 PM 40.7225 -94.9303 14° North 419 482 32,500 -1,016 Descending Minneapolis Center
Fri 08:37:51 PM 40.8356 -94.8936 14° North 419 482 31,500 -726 Descending Minneapolis Center
Fri 08:38:53 PM 40.9522 -94.8558 14° North 425 489 31,000 -242 Descending Minneapolis Center
Fri 08:39:55 PM 41.0708 -94.8164 14° North 435 501 31,000  Level Minneapolis Center
Fri 08:40:57 PM 41.2131 -94.7694 14° North 439 505 31,000  Level Minneapolis Center
Fri 08:41:59 PM 41.3278 -94.7317 14° North 433 498 31,000  Level Minneapolis Center
Fri 08:43:01 PM 41.4428 -94.6933 14° North 429 494 31,000  Level Minneapolis Center
Fri 08:44:03 PM 41.5575 -94.6542 14° North 428 493 31,000  Level Minneapolis Center
Fri 08:45:05 PM 41.6719 -94.6158 14° North 426 490 31,000  Level Minneapolis Center
Fri 08:46:07 PM 41.8108 -94.5703 14° North 428 493 31,000  Level Minneapolis Center
Fri 08:47:09 PM 41.9258 -94.5314 14° North 429 494 31,000  Level Minneapolis Center
Fri 08:48:11 PM 42.0419 -94.4919 14° North 429 494 31,000  Level Minneapolis Center
Fri 08:49:13 PM 42.1572 -94.4519 14° North 430 495 31,000  Level Minneapolis Center
Fri 08:50:15 PM 42.2733 -94.4119 14° North 431 496 31,000  Level Minneapolis Center
Fri 08:51:17 PM 42.3889 -94.3719 14° North 430 495 31,000  Level Minneapolis Center
Fri 08:52:20 PM 42.5244 -94.3247 14° North 424 488 31,000  Level Minneapolis Center
Fri 08:53:22 PM 42.6344 -94.2653 22° Northeast 434 499 31,000  Level Minneapolis Center
Fri 08:54:24 PM 42.7333 -94.1614 38° Northeast 453 521 31,000  Level Minneapolis Center
Fri 08:55:26 PM 42.8306 -94.0619 37° Northeast 446 513 31,000  Level Minneapolis Center
Fri 08:56:28 PM 42.9400 -93.9972 23° Northeast 435 501 31,000 -290 Level Minneapolis Center
Fri 08:57:30 PM 43.0719 -93.9181 24° Northeast 433 498 30,400 -1,016 Descending Minneapolis Center
Fri 08:58:32 PM 43.1825 -93.8525 23° Northeast 435 501 28,900 -1,452 Descending Minneapolis Center
Fri 08:59:34 PM 43.2903 -93.7881 24° Northeast 429 494 27,400 -1,452 Descending Minneapolis Center
Fri 09:00:36 PM 43.3989 -93.7278 22° Northeast 427 491 25,900 -1,452 Descending Minneapolis Center
Fri 09:01:38 PM 43.5097 -93.6956 12° North 413 475 24,400 -1,694 Descending Minneapolis Center
Fri 09:02:40 PM 43.6247 -93.6589 13° North 405 466 22,400 -2,081 Descending Minneapolis Center
Fri 09:03:42 PM 43.7297 -93.6258 13° North 393 452 20,100 -2,419 Descending Minneapolis Center
Fri 09:04:44 PM 43.8528 -93.5867 13° North 382 440 17,400 -2,419 Descending Minneapolis Center
Fri 09:05:46 PM 43.9553 -93.5536 13° North 381 438 15,100 -2,274 Descending Minneapolis Center
Fri 09:06:48 PM 44.0506 -93.5225 13° North 350 403 12,700 -1,984 Descending Minneapolis Center
Fri 09:07:50 PM 44.1419 -93.4944 12° North 337 388 11,000 -823 Descending Minneapolis Center
Fri 09:08:52 PM 44.2225 -93.4664 14° North 298 343 11,000  Level Minneapolis Center
Fri 09:09:54 PM 44.2967 -93.4164 26° Northeast 296 341 11,000 -871 Level Minneapolis Center
Fri 09:10:56 PM 44.3850 -93.3694 21° North 285 328 9,200 -1,548 Descending Minneapolis Center
Fri 09:11:58 PM 44.4581 -93.3308 21° North 281 323 7,800 -1,065 Descending Minneapolis Center
Fri 09:13:00 PM 44.5300 -93.2919 21° North 278 320 7,000 -1,113 Descending Minneapolis Center
Fri 09:14:02 PM 44.6000 -93.2533 21° North 273 314 5,500 -1,210 Descending Minneapolis Center
Fri 09:15:04 PM 44.6667 -93.2172 21° North 257 296 4,500 -871 Descending Minneapolis Center
Fri 09:16:06 PM 44.7253 -93.1992 12° North 180 207 3,700 -871 Descending Minneapolis Center
Fri 09:17:08 PM 44.7717 -93.2119 349° North 178 205 2,700 -968 Descending Minneapolis Center

Login

Don't have an account? Register now (free) for customized features, flight alerts, and more!